Impacts TAF Board
For situational awareness. Not to be used for flight planning purposes.
IDs:

KDCA - Washington/National, VA, US

Issued at 1052 UTC 15 Dec 2018
Updated at 1057 UTC 15 Dec 2018
Potential Impact None Slight Moderate High
Time1052Z 15/11Z 15/12Z 15/13Z 15/14Z 15/15Z 15/16Z 15/17Z 15/18Z 15/19Z 15/20Z 15/21Z 15/22Z 15/23Z>>
Type OBS PRVL PRVL PRVL PRVL PRVL PRVL PRVL PRVL PRVL PRVL PRVL PRVL PRVL
VIS 6 2 2 2 2 0.75 0.75 0.75 1 1 1 1.5 1.5 0.75
CIG 6 8 8 8 8 3 3 3 3 3 3 3 3 3
Cover OVC OVC OVC OVC OVC OVC OVC OVC OVC OVC OVC OVC OVC OVC
FltCat IFR IFR IFR IFR IFR LIFR LIFR LIFR LIFR LIFR LIFR LIFR LIFR LIFR
WX -RA BR -RA BR -RA BR -RA BR -RA BR -RA -RA -RA -RA -RA -RA -RA -RA -RA
WDir 40 40 40 40 40 50 50 50 40 40 40 50 50 60
WSpd 9 8 8 8 8 8 8 8 8 8 8 9 9 10
WGst -- -- -- -- -- -- -- -- -- -- -- -- -- --
Raw TAF
KDCA 151052Z 1511/1612 04008KT 2SM -RA BR BKN008 OVC013
  FM151500 05008KT 3/4SM -RA BKN003 OVC010
  FM151800 04008KT 1SM -RA BKN003 OVC010 WS020/06040KT
  FM152100 05009KT 1 1/2SM -RA BKN003 OVC010 WS020/06040KT
  FM152300 06010KT 3/4SM -RA BKN003 OVC010
  FM160600 05009KT 1SM -RA BR BKN003 OVC010


Raw METAR
KDCA 151052Z 04009KT 6SM -RA BR BKN006 BKN021 OVC035 10/09 A3005 RMK AO2 SLP177 P0006 T01000089
KDCA 151022Z 04010KT 4SM -RA BR SCT005 BKN015 OVC026 10/09 A3006 RMK AO2 P0003 T01000089
KDCA 150952Z 03010KT 3SM RA BR OVC005 10/09 A3008 RMK AO2 SLP184 P0004 T01000089
KDCA 150905Z 03009KT 5SM -RA BR OVC005 10/08 A3009 RMK AO2 P0001 T01000083
KDCA 150852Z 03009KT 3SM -RA BR OVC004 10/08 A3009 RMK AO2 DZE02RAB02 SLP189 P0007 60009 T01000083 56016
KDCA 150844Z 03006KT 2 1/2SM RA BR OVC005 10/09 A3010 RMK AO2 DZE02RAB02 P0006 T01000089
KDCA 150756Z 02009KT 2 1/2SM -DZ BR OVC004 10/08 A3012 RMK AO2 P0000 T01000083
KDCA 150752Z 02011KT 3SM -DZ BR OVC004 10/08 A3012 RMK AO2 DZE0654B29 SLP200 P0000 T01000083

METAR Board
Radar Display
Forecast Discussion
For situational awareness. Not to be used for flight planning purposes.